createdAt,value
2018-02-13T00:02:00.349Z,5.83
2018-02-13T00:04:27.840Z,5.97
2018-02-13T00:06:55.711Z,6.07
2018-02-13T00:09:23.220Z,5.67
2018-02-13T00:11:50.709Z,5.87
2018-02-13T00:14:18.988Z,5.93
2018-02-13T00:16:47.313Z,5.83
2018-02-13T00:19:15.857Z,6.00
2018-02-13T00:21:43.352Z,5.27
2018-02-13T00:24:10.865Z,5.63
2018-02-13T00:26:39.148Z,5.83
2018-02-13T00:29:07.413Z,6.40
2018-02-13T00:31:36.092Z,5.30
2018-02-13T00:34:03.579Z,5.57
2018-02-13T00:36:31.132Z,5.90
2018-02-13T00:38:58.668Z,6.47
2018-02-13T00:41:26.170Z,5.97
2018-02-13T00:43:53.986Z,6.23
2018-02-13T00:46:21.481Z,6.37
2018-02-13T00:48:48.975Z,5.67
2018-02-13T00:51:16.490Z,5.50
2018-02-13T00:53:43.982Z,5.93
2018-02-13T00:56:11.895Z,6.23
2018-02-13T00:58:39.380Z,5.23
2018-02-13T01:01:07.717Z,6.40
2018-02-13T01:03:35.230Z,5.47
2018-02-13T01:06:02.737Z,5.43
2018-02-13T01:08:30.535Z,5.87
2018-02-13T01:10:58.160Z,5.40
2018-02-13T01:13:25.659Z,5.20
2018-02-13T01:15:53.510Z,6.33
2018-02-13T01:18:21.015Z,5.50
2018-02-13T01:20:49.295Z,5.73
2018-02-13T01:23:16.798Z,5.83
2018-02-13T01:25:44.303Z,5.43
2018-02-13T01:28:12.146Z,5.73
2018-02-13T01:30:39.651Z,6.07
2018-02-13T01:33:07.266Z,6.40
2018-02-13T01:35:34.770Z,6.17
2018-02-13T01:38:02.290Z,5.80
2018-02-13T01:40:30.091Z,5.73
2018-02-13T01:42:58.256Z,5.90
2018-02-13T01:45:25.740Z,6.20
2018-02-13T01:47:53.259Z,6.20
2018-02-13T01:50:25.573Z,6.07
2018-02-13T01:52:53.399Z,5.87
2018-02-13T01:55:20.895Z,6.43
2018-02-13T01:57:49.154Z,6.07
2018-02-13T02:00:16.774Z,6.27
2018-02-13T02:02:44.273Z,7.50
2018-02-13T02:05:12.162Z,6.50
2018-02-13T02:07:39.676Z,7.73
2018-02-13T02:10:07.171Z,7.13
2018-02-13T02:12:35.430Z,7.93
2018-02-13T02:15:02.933Z,7.20
2018-02-13T02:17:30.873Z,7.00
2018-02-13T02:19:58.370Z,7.77
2018-02-13T02:22:27.725Z,8.30
2018-02-13T02:24:55.254Z,7.43
2018-02-13T02:27:22.748Z,7.93
2018-02-13T02:29:51.041Z,7.53
2018-02-13T02:32:18.620Z,8.20
2018-02-13T02:34:46.923Z,8.30
2018-02-13T02:37:14.433Z,8.83
2018-02-13T02:39:41.964Z,8.13
2018-02-13T02:42:10.562Z,7.97
2018-02-13T02:44:38.060Z,7.43
2018-02-13T02:47:05.598Z,9.23
2018-02-13T02:49:33.091Z,7.57
2018-02-13T02:52:00.575Z,8.00
2018-02-13T02:54:28.491Z,8.63
2018-02-13T02:56:55.982Z,8.40
2018-02-13T02:59:23.495Z,9.13
2018-02-13T03:01:51.443Z,8.20
2018-02-13T03:04:18.962Z,8.63
2018-02-13T03:06:46.466Z,8.73
2018-02-13T03:09:14.251Z,9.23
2018-02-13T03:11:41.762Z,9.73
2018-02-13T03:14:09.252Z,9.73
2018-02-13T03:16:36.755Z,9.97
2018-02-13T03:19:04.260Z,9.20
2018-02-13T03:21:32.134Z,8.80
2018-02-13T03:23:59.623Z,9.77
2018-02-13T03:26:27.892Z,10.13
2018-02-13T03:28:55.702Z,9.00
2018-02-13T03:31:23.208Z,9.63
2018-02-13T03:33:50.711Z,8.80
2018-02-13T03:36:18.942Z,9.97
2018-02-13T03:38:46.442Z,10.50
2018-02-13T03:41:14.352Z,10.00
2018-02-13T03:43:41.861Z,10.53
2018-02-13T03:46:09.355Z,9.97
2018-02-13T03:48:37.194Z,10.00
2018-02-13T03:51:06.171Z,10.17
2018-02-13T03:53:33.667Z,9.83
2018-02-13T03:56:01.194Z,11.03
2018-02-13T03:58:28.697Z,9.97
2018-02-13T04:00:56.540Z,10.33
2018-02-13T04:03:24.802Z,10.93
2018-02-13T04:05:52.326Z,11.10
2018-02-13T04:08:19.829Z,10.80
2018-02-13T04:10:47.322Z,11.37
2018-02-13T04:13:14.845Z,11.07
2018-02-13T04:15:43.363Z,10.90
2018-02-13T04:18:10.854Z,10.87
2018-02-13T04:20:38.366Z,11.47
2018-02-13T04:23:05.856Z,10.93
2018-02-13T04:25:33.679Z,11.20
2018-02-13T04:28:01.173Z,11.93
2018-02-13T04:30:28.683Z,12.53
2018-02-13T04:32:56.195Z,12.33
2018-02-13T04:35:23.699Z,11.57
2018-02-13T04:37:51.629Z,12.03
2018-02-13T04:40:19.141Z,12.13
2018-02-13T04:42:46.631Z,12.63
2018-02-13T04:45:14.165Z,12.50
2018-02-13T04:47:41.661Z,12.20
2018-02-13T04:50:09.572Z,12.27
2018-02-13T04:52:37.091Z,13.07
2018-02-13T04:55:04.590Z,12.80
2018-02-13T04:57:32.107Z,12.73
2018-02-13T04:59:59.610Z,13.23
2018-02-13T05:02:27.571Z,12.57
2018-02-13T05:04:55.079Z,12.90
2018-02-13T05:07:22.580Z,12.90
2018-02-13T05:09:50.864Z,14.40
2018-02-13T05:12:18.981Z,13.30
2018-02-13T05:14:46.783Z,12.77
2018-02-13T05:17:15.074Z,12.50
2018-02-13T05:19:43.344Z,13.67
2018-02-13T05:22:10.872Z,12.40
2018-02-13T05:24:38.370Z,13.03
2018-02-13T05:27:07.159Z,14.07
2018-02-13T05:29:34.662Z,12.73
2018-02-13T05:32:02.176Z,13.73
2018-02-13T05:34:29.691Z,13.63
2018-02-13T05:36:57.197Z,14.73
2018-02-13T05:39:25.157Z,13.80
2018-02-13T05:41:52.665Z,14.60
2018-02-13T05:44:20.164Z,13.13
2018-02-13T05:46:47.673Z,13.70
2018-02-13T05:49:15.570Z,14.43
2018-02-13T05:51:43.357Z,14.37
2018-02-13T05:54:10.885Z,14.53
2018-02-13T05:56:38.437Z,13.83
2018-02-13T05:59:05.963Z,14.83
2018-02-13T06:01:33.479Z,14.03
2018-02-13T06:04:02.085Z,14.00
2018-02-13T06:06:29.583Z,13.93
2018-02-13T06:08:57.117Z,14.20
2018-02-13T06:11:24.670Z,15.20
2018-02-13T06:13:52.163Z,14.57
2018-02-13T06:16:20.090Z,13.77
2018-02-13T06:18:47.583Z,14.83
2018-02-13T06:21:15.213Z,14.73
2018-02-13T06:23:42.730Z,14.57
2018-02-13T06:26:11.005Z,15.03
2018-02-13T06:28:39.568Z,15.27
2018-02-13T06:31:07.080Z,14.87
2018-02-13T06:33:34.590Z,15.03
2018-02-13T06:36:02.103Z,14.60
2018-02-13T06:38:29.594Z,15.87
2018-02-13T06:40:57.402Z,15.07
2018-02-13T06:43:24.951Z,14.50
2018-02-13T06:45:53.265Z,15.10
2018-02-13T06:48:21.393Z,15.00
2018-02-13T06:50:49.662Z,15.97
2018-02-13T06:53:17.574Z,14.93
2018-02-13T06:55:45.211Z,14.70
2018-02-13T06:58:12.763Z,15.40
2018-02-13T07:00:41.595Z,14.87
2018-02-13T07:03:09.224Z,14.70
2018-02-13T07:05:36.750Z,15.23
2018-02-13T07:08:04.258Z,15.03
2018-02-13T07:10:31.798Z,15.20
2018-02-13T07:12:59.665Z,14.57
2018-02-13T07:15:27.216Z,14.33
2018-02-13T07:17:54.709Z,13.73
2018-02-13T07:20:22.351Z,14.13
2018-02-13T07:22:49.861Z,14.00
2018-02-13T07:25:18.111Z,13.13
2018-02-13T07:27:45.624Z,13.87
2018-02-13T07:30:13.883Z,13.60
2018-02-13T07:32:41.394Z,12.90
2018-02-13T07:35:08.890Z,12.80
2018-02-13T07:37:36.716Z,12.77
2018-02-13T07:40:04.217Z,12.07
2018-02-13T07:42:31.724Z,13.13
2018-02-13T07:44:59.322Z,12.27
2018-02-13T07:47:26.823Z,11.73
2018-02-13T07:49:54.674Z,12.03
2018-02-13T07:52:22.944Z,12.73
2018-02-13T07:54:51.211Z,12.63
2018-02-13T07:57:18.729Z,12.20
2018-02-13T07:59:46.232Z,12.00
2018-02-13T08:02:14.271Z,11.80
2018-02-13T08:04:41.758Z,11.57
2018-02-13T08:07:09.257Z,11.30
2018-02-13T08:09:37.702Z,11.30
2018-02-13T08:12:05.976Z,11.00
2018-02-13T08:14:34.588Z,11.80
2018-02-13T08:17:02.181Z,11.50
2018-02-13T08:19:29.688Z,11.27
2018-02-13T08:21:57.207Z,11.03
2018-02-13T08:24:24.905Z,12.13
2018-02-13T08:26:52.788Z,11.03
2018-02-13T08:29:20.302Z,11.30
2018-02-13T08:31:47.794Z,10.50
2018-02-13T08:34:16.081Z,11.07
2018-02-13T08:36:43.570Z,10.03
2018-02-13T08:39:11.407Z,10.77
2018-02-13T08:41:38.950Z,10.60
2018-02-13T08:44:07.214Z,10.23
2018-02-13T08:46:35.487Z,10.67
2018-02-13T08:49:03.760Z,10.53
2018-02-13T08:51:32.809Z,9.73
2018-02-13T08:54:00.431Z,10.80
2018-02-13T08:56:27.930Z,9.37
2018-02-13T08:58:55.434Z,9.53
2018-02-13T09:01:22.980Z,8.80
2018-02-13T09:03:50.971Z,10.03
2018-02-13T09:06:18.463Z,9.87
2018-02-13T09:08:45.955Z,9.50
2018-02-13T09:11:13.450Z,7.80
2018-02-13T09:13:41.708Z,9.40
2018-02-13T09:16:09.535Z,9.17
2018-02-13T09:18:37.127Z,8.33
2018-02-13T09:21:04.614Z,8.13
2018-02-13T09:23:32.120Z,8.60
2018-02-13T09:25:59.602Z,8.80
2018-02-13T09:28:27.943Z,8.80
2018-02-13T09:30:55.449Z,7.97
2018-02-13T09:33:23.058Z,9.00
2018-02-13T09:35:50.562Z,8.57
2018-02-13T09:38:18.120Z,8.80
2018-02-13T09:40:46.798Z,7.60
2018-02-13T09:43:15.051Z,7.27
2018-02-13T09:45:42.562Z,7.93
2018-02-13T09:48:10.068Z,8.73
2018-02-13T09:50:37.588Z,6.87
2018-02-13T09:53:05.097Z,6.93
2018-02-13T09:55:32.590Z,7.20
2018-02-13T09:58:00.092Z,7.60
2018-02-13T10:00:27.906Z,7.30
2018-02-13T10:02:55.396Z,7.03
2018-02-13T10:05:22.884Z,7.03
2018-02-13T10:07:51.178Z,7.00
2018-02-13T10:10:19.437Z,6.63
2018-02-13T10:12:47.452Z,7.03
2018-02-13T10:15:14.986Z,6.63
2018-02-13T10:17:42.535Z,6.23
2018-02-13T10:20:10.038Z,6.20
2018-02-13T10:22:37.536Z,6.40
2018-02-13T10:25:05.441Z,6.80
2018-02-13T10:27:33.818Z,6.50
2018-02-13T10:30:01.490Z,5.70
2018-02-13T10:32:29.149Z,6.00
2018-02-13T10:34:56.680Z,5.90
2018-02-13T10:37:24.499Z,6.13
2018-02-13T10:39:52.113Z,5.67
2018-02-13T10:42:20.386Z,5.40
2018-02-13T10:44:48.778Z,5.07
2018-02-13T10:47:16.274Z,5.30
2018-02-13T10:49:44.307Z,5.40
2018-02-13T10:52:11.796Z,5.20
2018-02-13T10:54:40.061Z,5.17
2018-02-13T10:57:07.565Z,5.20
2018-02-13T10:59:35.074Z,4.90
2018-02-13T11:02:08.388Z,4.70
2018-02-13T11:04:35.990Z,4.90
2018-02-13T11:07:03.909Z,5.20
2018-02-13T11:09:31.397Z,4.40
2018-02-13T11:11:58.901Z,4.63
2018-02-13T11:14:26.633Z,4.70
2018-02-13T11:16:54.123Z,4.37
2018-02-13T11:19:23.341Z,4.30
2018-02-13T11:21:50.822Z,4.43
2018-02-13T11:24:18.302Z,4.10
2018-02-13T11:26:45.882Z,4.77
2018-02-13T11:29:13.542Z,4.50
2018-02-13T11:31:41.417Z,4.57
2018-02-13T11:34:08.915Z,4.30
2018-02-13T11:36:36.422Z,4.20
2018-02-13T11:39:05.003Z,3.73
2018-02-13T11:41:32.549Z,4.23
2018-02-13T11:44:00.819Z,3.90
2018-02-13T11:46:29.434Z,3.43
2018-02-13T11:48:56.944Z,3.60
2018-02-13T11:51:24.452Z,4.40
2018-02-13T11:53:51.977Z,3.80
2018-02-13T11:56:19.468Z,3.63
2018-02-13T11:58:47.437Z,3.60
2018-02-13T12:01:14.914Z,4.23
2018-02-13T12:03:42.411Z,3.63
2018-02-13T12:06:09.946Z,3.50
2018-02-13T12:08:37.480Z,3.60
2018-02-13T12:11:05.334Z,3.80
2018-02-13T12:13:32.823Z,3.30
2018-02-13T12:16:00.326Z,3.70
2018-02-13T12:18:27.853Z,3.40
2018-02-13T12:20:55.364Z,3.00
2018-02-13T12:23:23.240Z,3.83
2018-02-13T12:25:50.820Z,3.27
2018-02-13T12:28:18.325Z,3.20
2018-02-13T12:30:46.639Z,3.30
2018-02-13T12:33:14.140Z,3.40
2018-02-13T12:35:42.138Z,3.80
2018-02-13T12:38:09.652Z,3.17
2018-02-13T12:40:37.154Z,2.80
2018-02-13T12:43:05.428Z,2.63
2018-02-13T12:45:33.689Z,3.40
2018-02-13T12:48:03.651Z,3.00
2018-02-13T12:50:31.397Z,2.60
2018-02-13T12:52:58.951Z,3.20
2018-02-13T12:55:26.456Z,2.47
2018-02-13T12:57:54.716Z,2.80
2018-02-13T13:00:23.490Z,2.97
2018-02-13T13:02:50.977Z,2.60
2018-02-13T13:05:18.467Z,3.03
2018-02-13T13:07:46.743Z,2.70
2018-02-13T13:10:15.005Z,2.63
2018-02-13T13:12:42.885Z,3.10
2018-02-13T13:15:11.144Z,3.10
2018-02-13T13:17:38.633Z,2.90
2018-02-13T13:20:06.145Z,2.80
2018-02-13T13:22:33.677Z,2.60
2018-02-13T13:25:01.631Z,2.53
2018-02-13T13:27:29.123Z,2.70
2018-02-13T13:29:56.612Z,2.43
2018-02-13T13:32:24.125Z,2.67
2018-02-13T13:34:51.630Z,2.90
2018-02-13T13:37:19.541Z,2.60
2018-02-13T13:39:47.055Z,3.00
2018-02-13T13:42:14.551Z,2.60
2018-02-13T13:44:42.060Z,3.30
2018-02-13T13:47:09.604Z,2.53
2018-02-13T13:49:37.559Z,2.93
2018-02-13T13:52:05.075Z,2.70
2018-02-13T13:54:33.333Z,2.97
2018-02-13T13:57:01.649Z,3.30
2018-02-13T13:59:29.148Z,2.87
2018-02-13T14:01:56.980Z,2.57
2018-02-13T14:04:24.566Z,2.33
2018-02-13T14:06:52.059Z,2.60
2018-02-13T14:09:20.862Z,3.00
2018-02-13T14:11:48.354Z,2.97
2018-02-13T14:14:15.847Z,3.30
2018-02-13T14:16:43.752Z,2.97
2018-02-13T14:19:11.483Z,3.00
2018-02-13T14:21:42.569Z,3.03
2018-02-13T14:24:10.628Z,2.80
2018-02-13T14:26:38.132Z,3.23
2018-02-13T14:29:05.624Z,3.30
2018-02-13T14:31:33.760Z,3.10
2018-02-13T14:34:01.250Z,3.43
2018-02-13T14:36:29.512Z,2.77
2018-02-13T14:38:57.794Z,2.93
2018-02-13T14:41:26.050Z,2.93
2018-02-13T14:43:53.562Z,2.90
2018-02-13T14:46:22.231Z,2.53
2018-02-13T14:48:49.744Z,2.83
2018-02-13T14:51:17.222Z,2.97
2018-02-13T14:53:44.739Z,2.70
2018-02-13T14:56:12.564Z,2.67
2018-02-13T14:58:40.099Z,2.47
2018-02-13T15:01:08.610Z,3.00
2018-02-13T15:03:36.121Z,2.57
2018-02-13T15:06:03.638Z,3.17
2018-02-13T15:08:31.451Z,2.50
2018-02-13T15:10:59.000Z,2.77
2018-02-13T15:13:26.487Z,2.93
2018-02-13T15:15:54.749Z,2.70
2018-02-13T15:18:22.296Z,2.47
2018-02-13T15:20:50.186Z,2.97
2018-02-13T15:23:18.553Z,3.00
2018-02-13T15:25:46.034Z,2.43
2018-02-13T15:28:14.635Z,2.53
2018-02-13T15:30:42.110Z,3.00
2018-02-13T15:33:09.615Z,3.00
2018-02-13T15:35:39.147Z,3.30
2018-02-13T15:38:06.625Z,3.10
2018-02-13T15:40:34.122Z,3.53
2018-02-13T15:43:02.007Z,4.07
2018-02-13T15:45:30.269Z,3.90
2018-02-13T15:47:57.836Z,4.00
2018-02-13T15:50:26.105Z,4.10
2018-02-13T15:52:53.606Z,4.30
2018-02-13T15:55:21.573Z,4.33
2018-02-13T15:57:49.062Z,4.30
2018-02-13T16:00:16.726Z,4.63
2018-02-13T16:02:44.216Z,3.70
2018-02-13T16:05:12.473Z,3.87
2018-02-13T16:07:40.294Z,4.13
2018-02-13T16:10:07.824Z,3.93
2018-02-13T16:12:35.365Z,4.23
2018-02-13T16:15:03.204Z,4.20
2018-02-13T16:17:30.709Z,4.10
2018-02-13T16:19:58.230Z,4.13
2018-02-13T16:22:25.736Z,4.07
2018-02-13T16:24:53.252Z,4.83
2018-02-13T16:27:21.890Z,4.70
2018-02-13T16:29:49.409Z,5.27
2018-02-13T16:32:17.717Z,4.90
2018-02-13T16:34:45.254Z,5.80
2018-02-13T16:37:12.752Z,6.03
2018-02-13T16:39:40.636Z,6.70
2018-02-13T16:42:08.148Z,6.20
2018-02-13T16:44:36.414Z,5.50
2018-02-13T16:47:04.088Z,5.90
2018-02-13T16:49:31.577Z,6.70
2018-02-13T16:51:59.403Z,5.17
2018-02-13T16:54:27.663Z,5.43
2018-02-13T16:56:55.910Z,8.87
2018-02-13T16:59:23.427Z,7.97
2018-02-13T17:01:50.947Z,6.37
2018-02-13T17:04:19.045Z,7.30
2018-02-13T17:06:47.305Z,6.00
2018-02-13T17:09:16.420Z,4.97
2018-02-13T17:11:44.693Z,5.03
2018-02-13T17:14:12.243Z,5.10
2018-02-13T17:16:40.131Z,5.17
2018-02-13T17:19:07.784Z,5.00
2018-02-13T17:21:35.335Z,5.47
2018-02-13T17:24:02.821Z,5.80
2018-02-13T17:26:30.470Z,6.17
2018-02-13T17:28:58.327Z,7.27
2018-02-13T17:31:25.891Z,7.27
2018-02-13T17:33:53.464Z,7.17
2018-02-13T17:36:20.968Z,6.83
2018-02-13T17:38:48.588Z,7.20
2018-02-13T17:41:16.439Z,6.40
2018-02-13T17:43:44.094Z,6.10
2018-02-13T17:46:11.622Z,6.17
2018-02-13T17:48:39.231Z,6.23
2018-02-13T17:51:06.880Z,5.93
2018-02-13T17:53:34.735Z,6.47
2018-02-13T17:56:02.324Z,6.47
2018-02-13T17:58:29.823Z,7.93
2018-02-13T18:00:57.724Z,10.17
2018-02-13T18:03:25.222Z,10.67
2018-02-13T18:05:52.858Z,10.13
2018-02-13T18:08:20.708Z,9.53
2018-02-13T18:10:48.273Z,8.73
2018-02-13T18:13:15.746Z,7.90
2018-02-13T18:15:43.789Z,8.00
2018-02-13T18:18:11.372Z,8.20
2018-02-13T18:20:38.888Z,6.87
2018-02-13T18:23:06.802Z,7.50
2018-02-13T18:25:34.309Z,6.63
2018-02-13T18:28:01.920Z,22.77
2018-02-13T18:30:29.850Z,27.03
2018-02-13T18:32:58.114Z,8.77
2018-02-13T18:35:26.400Z,7.60
2018-02-13T18:37:54.277Z,6.70
2018-02-13T18:40:21.775Z,6.70
2018-02-13T18:42:49.269Z,6.40
2018-02-13T18:45:19.325Z,6.87
2018-02-13T18:47:46.824Z,7.40
2018-02-13T18:50:14.342Z,6.17
2018-02-13T18:55:10.480Z,5.40
2018-02-13T18:57:38.026Z,5.47
2018-02-13T19:00:05.921Z,5.17
2018-02-13T19:02:33.426Z,5.27
2018-02-13T19:05:00.936Z,5.57
2018-02-13T19:07:29.591Z,5.40
2018-02-13T19:09:57.092Z,5.27
2018-02-13T19:12:24.606Z,5.73
2018-02-13T19:24:37.535Z,10.17
2018-02-13T19:27:05.116Z,6.37
2018-02-13T19:29:32.652Z,5.57
2018-02-13T19:32:00.631Z,5.90
2018-02-13T19:34:28.219Z,5.53
2018-02-13T19:36:56.530Z,6.00
2018-02-13T19:39:24.531Z,6.13
2018-02-13T19:41:52.103Z,6.53
2018-02-13T19:44:20.469Z,6.10
2018-02-13T19:46:48.417Z,7.23
2018-02-13T19:49:16.386Z,6.47
2018-02-13T19:51:44.013Z,7.63
2018-02-13T19:54:11.991Z,7.27
2018-02-13T19:56:39.632Z,7.10
2018-02-13T19:59:07.307Z,7.57
2018-02-13T20:01:35.248Z,7.10
2018-02-13T20:04:03.703Z,6.73
2018-02-13T20:06:31.285Z,8.57
2018-02-13T20:09:00.987Z,6.40
2018-02-13T20:11:28.585Z,6.67
2018-02-13T20:13:56.255Z,6.37
2018-02-13T20:16:24.133Z,6.40
2018-02-13T20:18:52.581Z,7.13
2018-02-13T20:21:22.001Z,7.00
2018-02-13T20:23:51.097Z,6.37
2018-02-13T20:26:18.761Z,7.10
2018-02-13T20:28:47.026Z,6.73
2018-02-13T20:31:15.029Z,7.33
2018-02-13T20:33:42.663Z,7.13
2018-02-13T20:36:10.252Z,7.07
2018-02-13T20:38:38.257Z,7.00
2018-02-13T20:41:07.438Z,7.00
2018-02-13T20:43:35.872Z,7.17
2018-02-13T20:46:04.568Z,7.00
2018-02-13T20:48:33.348Z,7.40
2018-02-13T20:51:00.950Z,8.30
2018-02-13T20:53:29.042Z,7.87
2018-02-13T20:55:57.477Z,7.97
2018-02-13T20:58:25.044Z,7.80
2018-02-13T21:00:53.046Z,7.97
2018-02-13T21:03:21.921Z,9.10
2018-02-13T21:18:44.502Z,6.73
2018-02-13T21:21:12.387Z,6.80
2018-02-13T21:23:39.923Z,6.50
2018-02-13T21:26:07.472Z,6.80
2018-02-13T21:28:35.776Z,6.73
2018-02-13T21:31:04.261Z,6.87
2018-02-13T21:33:32.290Z,7.03
2018-02-13T21:36:00.608Z,7.37
2018-02-13T21:38:28.158Z,7.13
2018-02-13T21:40:55.674Z,5.97
2018-02-13T21:43:23.966Z,7.70
2018-02-13T21:45:52.573Z,6.60
2018-02-13T21:48:20.132Z,7.07
2018-02-13T21:50:47.648Z,7.30
2018-02-13T21:53:15.191Z,8.53
2018-02-13T21:55:42.727Z,8.10
2018-02-13T21:58:10.529Z,8.17
2018-02-13T22:00:38.048Z,7.97
2018-02-13T22:03:05.550Z,8.10
2018-02-13T22:05:33.824Z,7.90
2018-02-13T22:08:01.357Z,7.87
2018-02-13T22:10:29.212Z,7.77
2018-02-13T22:12:56.764Z,7.43
2018-02-13T22:15:25.032Z,7.80
2018-02-13T22:17:52.556Z,7.43
2018-02-13T22:20:20.069Z,7.33
2018-02-13T22:22:47.985Z,7.70
2018-02-13T22:25:15.509Z,6.67
2018-02-13T22:27:42.993Z,7.07
2018-02-13T22:30:11.259Z,6.97
2018-02-13T22:32:39.522Z,7.60
2018-02-13T22:35:07.568Z,7.20
2018-02-13T22:37:35.063Z,7.13
2018-02-13T22:40:03.334Z,6.60
2018-02-13T22:42:30.855Z,6.53
2018-02-13T22:44:58.351Z,6.53
2018-02-13T22:47:26.927Z,6.73
2018-02-13T22:49:54.449Z,6.63
2018-02-13T22:52:21.989Z,6.93
2018-02-13T22:54:49.512Z,6.83
2018-02-13T22:57:17.845Z,6.23
2018-02-13T22:59:45.956Z,6.40
2018-02-13T23:02:13.448Z,6.43
2018-02-13T23:04:40.955Z,6.17
2018-02-13T23:07:08.475Z,6.30
2018-02-13T23:09:35.996Z,6.33
2018-02-13T23:12:03.832Z,6.50
2018-02-13T23:14:31.345Z,7.00
2018-02-13T23:16:58.839Z,6.50
2018-02-13T23:19:26.332Z,6.90
2018-02-13T23:21:53.831Z,6.37
2018-02-13T23:24:21.800Z,6.33
2018-02-13T23:26:49.307Z,6.60
2018-02-13T23:29:16.809Z,6.60
2018-02-13T23:31:44.322Z,6.80
2018-02-13T23:34:12.599Z,6.80
2018-02-13T23:36:40.502Z,6.67
2018-02-13T23:39:08.772Z,6.90
2018-02-13T23:41:36.263Z,7.63
2018-02-13T23:44:03.823Z,6.47
2018-02-13T23:46:31.325Z,7.20
2018-02-13T23:49:00.144Z,7.37
2018-02-13T23:51:27.659Z,6.70
2018-02-13T23:53:55.143Z,7.53
2018-02-13T23:56:22.638Z,7.00
2018-02-13T23:58:50.132Z,6.67
